sensor_id;sensor_type;location;lat;lon;timestamp;temperature;humidity
54622;DHT22;40521;53.146;6.556;2023-03-31T00:01:54;11.40;99.90
54622;DHT22;40521;53.146;6.556;2023-03-31T00:04:22;9.60;99.90
54622;DHT22;40521;53.146;6.556;2023-03-31T00:06:48;7.90;99.90
54622;DHT22;40521;53.146;6.556;2023-03-31T00:09:15;9.20;99.90
54622;DHT22;40521;53.146;6.556;2023-03-31T00:11:43;9.60;99.90
54622;DHT22;40521;53.146;6.556;2023-03-31T00:14:09;9.50;99.90
54622;DHT22;40521;53.146;6.556;2023-03-31T00:16:36;9.60;99.90
54622;DHT22;40521;53.146;6.556;2023-03-31T00:19:02;9.80;99.90
54622;DHT22;40521;53.146;6.556;2023-03-31T00:21:31;9.70;99.90
54622;DHT22;40521;53.146;6.556;2023-03-31T00:24:05;9.60;99.90
54622;DHT22;40521;53.146;6.556;2023-03-31T00:26:31;9.80;99.90
54622;DHT22;40521;53.146;6.556;2023-03-31T00:29:00;9.60;99.90
54622;DHT22;40521;53.146;6.556;2023-03-31T00:31:30;9.70;99.90
54622;DHT22;40521;53.146;6.556;2023-03-31T00:33:59;9.90;99.90
54622;DHT22;40521;53.146;6.556;2023-03-31T00:36:24;9.70;99.90
54622;DHT22;40521;53.146;6.556;2023-03-31T00:38:54;9.60;99.90
54622;DHT22;40521;53.146;6.556;2023-03-31T00:41:24;9.50;99.90
54622;DHT22;40521;53.146;6.556;2023-03-31T00:44:11;9.40;99.90
54622;DHT22;40521;53.146;6.556;2023-03-31T00:46:43;9.60;99.90
54622;DHT22;40521;53.146;6.556;2023-03-31T00:49:14;9.50;99.90
54622;DHT22;40521;53.146;6.556;2023-03-31T00:51:43;9.30;99.90
54622;DHT22;40521;53.146;6.556;2023-03-31T00:54:10;7.20;99.90
54622;DHT22;40521;53.146;6.556;2023-03-31T00:56:38;9.30;99.90
54622;DHT22;40521;53.146;6.556;2023-03-31T00:59:06;9.20;99.90
54622;DHT22;40521;53.146;6.556;2023-03-31T01:01:33;8.00;99.90
54622;DHT22;40521;53.146;6.556;2023-03-31T01:04:03;9.30;99.90
54622;DHT22;40521;53.146;6.556;2023-03-31T01:06:31;9.40;99.90
54622;DHT22;40521;53.146;6.556;2023-03-31T01:08:59;9.40;99.90
54622;DHT22;40521;53.146;6.556;2023-03-31T01:11:29;9.70;99.90
54622;DHT22;40521;53.146;6.556;2023-03-31T01:13:55;9.00;99.90
54622;DHT22;40521;53.146;6.556;2023-03-31T01:16:33;9.10;99.90
54622;DHT22;40521;53.146;6.556;2023-03-31T01:19:12;11.70;99.90
54622;DHT22;40521;53.146;6.556;2023-03-31T01:24:52;7.80;99.90
54622;DHT22;40521;53.146;6.556;2023-03-31T01:38:08;8.70;99.90
54622;DHT22;40521;53.146;6.556;2023-03-31T01:50:54;9.30;99.90
54622;DHT22;40521;53.146;6.556;2023-03-31T01:53:35;6.90;99.90
54622;DHT22;40521;53.146;6.556;2023-03-31T01:56:16;8.60;99.90
54622;DHT22;40521;53.146;6.556;2023-03-31T01:58:49;8.60;99.90
54622;DHT22;40521;53.146;6.556;2023-03-31T02:01:27;6.80;99.90
54622;DHT22;40521;53.146;6.556;2023-03-31T02:04:02;8.70;99.90
54622;DHT22;40521;53.146;6.556;2023-03-31T02:06:34;8.60;99.90
54622;DHT22;40521;53.146;6.556;2023-03-31T02:09:05;8.90;99.90
54622;DHT22;40521;53.146;6.556;2023-03-31T02:11:35;8.50;99.90
54622;DHT22;40521;53.146;6.556;2023-03-31T02:14:05;9.10;99.90
54622;DHT22;40521;53.146;6.556;2023-03-31T02:16:36;9.10;99.90
54622;DHT22;40521;53.146;6.556;2023-03-31T02:19:06;9.40;99.90
54622;DHT22;40521;53.146;6.556;2023-03-31T02:21:33;7.00;99.90
54622;DHT22;40521;53.146;6.556;2023-03-31T02:24:01;8.70;99.90
54622;DHT22;40521;53.146;6.556;2023-03-31T02:26:30;8.90;99.90
54622;DHT22;40521;53.146;6.556;2023-03-31T02:28:56;9.40;99.90
54622;DHT22;40521;53.146;6.556;2023-03-31T02:31:24;8.70;99.90
54622;DHT22;40521;53.146;6.556;2023-03-31T02:33:54;8.90;99.90
54622;DHT22;40521;53.146;6.556;2023-03-31T02:36:22;7.20;99.90
54622;DHT22;40521;53.146;6.556;2023-03-31T02:38:56;8.60;99.90
54622;DHT22;40521;53.146;6.556;2023-03-31T02:41:23;8.70;99.90
54622;DHT22;40521;53.146;6.556;2023-03-31T02:43:49;8.80;99.90
54622;DHT22;40521;53.146;6.556;2023-03-31T02:46:15;9.50;99.90
54622;DHT22;40521;53.146;6.556;2023-03-31T02:48:46;8.80;99.90
54622;DHT22;40521;53.146;6.556;2023-03-31T02:51:23;8.90;99.90
54622;DHT22;40521;53.146;6.556;2023-03-31T02:56:35;8.70;99.90
54622;DHT22;40521;53.146;6.556;2023-03-31T03:01:36;11.10;99.90
54622;DHT22;40521;53.146;6.556;2023-03-31T03:12:09;8.90;99.90
54622;DHT22;40521;53.146;6.556;2023-03-31T03:14:58;9.60;99.90
54622;DHT22;40521;53.146;6.556;2023-03-31T03:17:29;8.80;99.90
54622;DHT22;40521;53.146;6.556;2023-03-31T03:19:58;8.90;99.90
54622;DHT22;40521;53.146;6.556;2023-03-31T03:22:24;7.10;99.90
54622;DHT22;40521;53.146;6.556;2023-03-31T03:24:56;7.50;99.90
54622;DHT22;40521;53.146;6.556;2023-03-31T03:27:25;9.20;99.90
54622;DHT22;40521;53.146;6.556;2023-03-31T03:29:50;8.80;99.90
54622;DHT22;40521;53.146;6.556;2023-03-31T03:32:16;7.40;99.90
54622;DHT22;40521;53.146;6.556;2023-03-31T03:34:42;8.80;99.90
54622;DHT22;40521;53.146;6.556;2023-03-31T03:37:10;8.90;99.90
54622;DHT22;40521;53.146;6.556;2023-03-31T03:39:36;9.20;99.90
54622;DHT22;40521;53.146;6.556;2023-03-31T03:42:02;9.10;99.90
54622;DHT22;40521;53.146;6.556;2023-03-31T03:44:33;8.70;99.90
54622;DHT22;40521;53.146;6.556;2023-03-31T03:46:59;9.10;99.90
54622;DHT22;40521;53.146;6.556;2023-03-31T03:49:25;9.00;99.90
54622;DHT22;40521;53.146;6.556;2023-03-31T03:51:51;8.90;99.90
54622;DHT22;40521;53.146;6.556;2023-03-31T03:54:18;9.40;99.90
54622;DHT22;40521;53.146;6.556;2023-03-31T03:56:47;9.00;99.90
54622;DHT22;40521;53.146;6.556;2023-03-31T03:59:12;8.90;99.90
54622;DHT22;40521;53.146;6.556;2023-03-31T04:01:38;8.90;99.90
54622;DHT22;40521;53.146;6.556;2023-03-31T04:04:06;8.90;99.90
54622;DHT22;40521;53.146;6.556;2023-03-31T04:06:35;9.00;99.90
54622;DHT22;40521;53.146;6.556;2023-03-31T04:09:01;7.80;99.90
54622;DHT22;40521;53.146;6.556;2023-03-31T04:11:27;9.20;99.90
54622;DHT22;40521;53.146;6.556;2023-03-31T04:13:55;9.00;99.90
54622;DHT22;40521;53.146;6.556;2023-03-31T04:16:24;9.00;99.90
54622;DHT22;40521;53.146;6.556;2023-03-31T04:19:12;9.40;99.90
54622;DHT22;40521;53.146;6.556;2023-03-31T04:21:53;9.10;99.90
54622;DHT22;40521;53.146;6.556;2023-03-31T04:24:29;9.20;99.90
54622;DHT22;40521;53.146;6.556;2023-03-31T04:26:57;9.10;99.90
54622;DHT22;40521;53.146;6.556;2023-03-31T04:29:23;9.10;99.90
54622;DHT22;40521;53.146;6.556;2023-03-31T04:31:53;9.20;99.90
54622;DHT22;40521;53.146;6.556;2023-03-31T04:34:23;7.40;99.90
54622;DHT22;40521;53.146;6.556;2023-03-31T04:36:51;7.90;99.90
54622;DHT22;40521;53.146;6.556;2023-03-31T04:39:20;9.10;99.90
54622;DHT22;40521;53.146;6.556;2023-03-31T04:41:57;7.70;99.90
54622;DHT22;40521;53.146;6.556;2023-03-31T04:44:23;9.10;99.90
54622;DHT22;40521;53.146;6.556;2023-03-31T04:46:49;9.10;99.90
54622;DHT22;40521;53.146;6.556;2023-03-31T04:49:18;9.20;99.90
54622;DHT22;40521;53.146;6.556;2023-03-31T04:51:44;9.10;99.90
54622;DHT22;40521;53.146;6.556;2023-03-31T04:54:10;9.50;99.90
54622;DHT22;40521;53.146;6.556;2023-03-31T04:56:35;9.10;99.90
54622;DHT22;40521;53.146;6.556;2023-03-31T04:59:01;9.50;99.90
54622;DHT22;40521;53.146;6.556;2023-03-31T05:01:30;8.90;99.90
54622;DHT22;40521;53.146;6.556;2023-03-31T05:04:03;9.50;99.90
54622;DHT22;40521;53.146;6.556;2023-03-31T05:06:31;9.10;99.90
54622;DHT22;40521;53.146;6.556;2023-03-31T05:08:59;9.20;99.90
54622;DHT22;40521;53.146;6.556;2023-03-31T05:11:25;9.10;99.90
54622;DHT22;40521;53.146;6.556;2023-03-31T05:13:51;9.10;99.90
54622;DHT22;40521;53.146;6.556;2023-03-31T05:16:20;9.20;99.90
54622;DHT22;40521;53.146;6.556;2023-03-31T05:18:45;9.10;99.90
54622;DHT22;40521;53.146;6.556;2023-03-31T05:21:13;9.20;99.90
54622;DHT22;40521;53.146;6.556;2023-03-31T05:23:42;9.20;99.90
54622;DHT22;40521;53.146;6.556;2023-03-31T05:26:09;8.00;99.90
54622;DHT22;40521;53.146;6.556;2023-03-31T05:28:45;9.10;99.90
54622;DHT22;40521;53.146;6.556;2023-03-31T05:31:11;9.10;99.90
54622;DHT22;40521;53.146;6.556;2023-03-31T05:33:37;9.20;99.90
54622;DHT22;40521;53.146;6.556;2023-03-31T05:36:10;9.70;99.90
54622;DHT22;40521;53.146;6.556;2023-03-31T05:38:37;9.10;99.90
54622;DHT22;40521;53.146;6.556;2023-03-31T05:41:08;9.10;99.90
54622;DHT22;40521;53.146;6.556;2023-03-31T05:43:34;7.30;99.90
54622;DHT22;40521;53.146;6.556;2023-03-31T05:46:03;9.10;99.90
54622;DHT22;40521;53.146;6.556;2023-03-31T05:48:29;7.70;99.90
54622;DHT22;40521;53.146;6.556;2023-03-31T05:50:57;7.90;99.90
54622;DHT22;40521;53.146;6.556;2023-03-31T05:53:26;9.30;99.90
54622;DHT22;40521;53.146;6.556;2023-03-31T05:55:55;9.40;99.90
54622;DHT22;40521;53.146;6.556;2023-03-31T05:58:25;9.20;99.90
54622;DHT22;40521;53.146;6.556;2023-03-31T06:00:59;10.30;99.90
54622;DHT22;40521;53.146;6.556;2023-03-31T06:03:25;9.20;99.90
54622;DHT22;40521;53.146;6.556;2023-03-31T06:05:51;9.20;99.90
54622;DHT22;40521;53.146;6.556;2023-03-31T06:08:18;9.20;99.90
54622;DHT22;40521;53.146;6.556;2023-03-31T06:10:44;9.40;99.90
54622;DHT22;40521;53.146;6.556;2023-03-31T06:13:09;9.60;99.90
54622;DHT22;40521;53.146;6.556;2023-03-31T06:15:35;9.30;99.90
54622;DHT22;40521;53.146;6.556;2023-03-31T06:18:01;9.20;99.90
54622;DHT22;40521;53.146;6.556;2023-03-31T06:20:26;9.50;99.90
54622;DHT22;40521;53.146;6.556;2023-03-31T06:22:52;7.50;99.90
54622;DHT22;40521;53.146;6.556;2023-03-31T06:25:17;9.20;99.90
54622;DHT22;40521;53.146;6.556;2023-03-31T06:27:45;9.20;99.90
54622;DHT22;40521;53.146;6.556;2023-03-31T06:30:11;9.50;99.90
54622;DHT22;40521;53.146;6.556;2023-03-31T06:32:37;9.40;99.90
54622;DHT22;40521;53.146;6.556;2023-03-31T06:35:03;9.40;99.90
54622;DHT22;40521;53.146;6.556;2023-03-31T06:37:28;9.70;99.90
54622;DHT22;40521;53.146;6.556;2023-03-31T06:39:54;9.60;99.90
54622;DHT22;40521;53.146;6.556;2023-03-31T06:42:20;9.20;99.90
54622;DHT22;40521;53.146;6.556;2023-03-31T06:44:46;9.40;99.90
54622;DHT22;40521;53.146;6.556;2023-03-31T06:47:11;9.30;99.90
54622;DHT22;40521;53.146;6.556;2023-03-31T06:49:37;9.30;99.90
54622;DHT22;40521;53.146;6.556;2023-03-31T06:52:03;9.30;99.90
54622;DHT22;40521;53.146;6.556;2023-03-31T06:54:28;9.70;99.90
54622;DHT22;40521;53.146;6.556;2023-03-31T06:56:54;9.30;99.90
54622;DHT22;40521;53.146;6.556;2023-03-31T06:59:20;9.40;99.90
54622;DHT22;40521;53.146;6.556;2023-03-31T07:01:48;9.30;99.90
54622;DHT22;40521;53.146;6.556;2023-03-31T07:04:14;9.30;99.90
54622;DHT22;40521;53.146;6.556;2023-03-31T07:06:43;9.50;99.90
54622;DHT22;40521;53.146;6.556;2023-03-31T07:09:08;9.40;99.90
54622;DHT22;40521;53.146;6.556;2023-03-31T07:11:34;7.40;99.90
54622;DHT22;40521;53.146;6.556;2023-03-31T07:13:59;9.30;99.90
54622;DHT22;40521;53.146;6.556;2023-03-31T07:16:31;8.30;99.90
54622;DHT22;40521;53.146;6.556;2023-03-31T07:18:59;9.30;99.90
54622;DHT22;40521;53.146;6.556;2023-03-31T07:21:33;9.40;99.90
54622;DHT22;40521;53.146;6.556;2023-03-31T07:23:59;11.70;99.90
54622;DHT22;40521;53.146;6.556;2023-03-31T07:26:25;9.60;99.90
54622;DHT22;40521;53.146;6.556;2023-03-31T07:28:51;9.70;99.90
54622;DHT22;40521;53.146;6.556;2023-03-31T07:31:19;9.70;99.90
54622;DHT22;40521;53.146;6.556;2023-03-31T07:33:48;9.50;99.90
54622;DHT22;40521;53.146;6.556;2023-03-31T07:36:13;9.50;99.90
54622;DHT22;40521;53.146;6.556;2023-03-31T07:38:40;9.80;99.90
54622;DHT22;40521;53.146;6.556;2023-03-31T07:41:09;9.60;99.90
54622;DHT22;40521;53.146;6.556;2023-03-31T07:43:39;9.60;99.90
54622;DHT22;40521;53.146;6.556;2023-03-31T07:46:05;8.80;99.90
54622;DHT22;40521;53.146;6.556;2023-03-31T07:48:35;9.60;99.90
54622;DHT22;40521;53.146;6.556;2023-03-31T07:51:00;9.70;99.90
54622;DHT22;40521;53.146;6.556;2023-03-31T07:53:44;9.60;99.90
54622;DHT22;40521;53.146;6.556;2023-03-31T07:56:09;9.90;99.90
54622;DHT22;40521;53.146;6.556;2023-03-31T07:58:35;9.60;99.90
54622;DHT22;40521;53.146;6.556;2023-03-31T08:01:21;9.60;99.90
54622;DHT22;40521;53.146;6.556;2023-03-31T08:03:55;9.70;99.90
54622;DHT22;40521;53.146;6.556;2023-03-31T08:06:29;9.80;99.90
54622;DHT22;40521;53.146;6.556;2023-03-31T08:09:05;9.70;99.90
54622;DHT22;40521;53.146;6.556;2023-03-31T08:11:59;9.80;99.90
54622;DHT22;40521;53.146;6.556;2023-03-31T08:14:37;10.50;99.90
54622;DHT22;40521;53.146;6.556;2023-03-31T08:17:33;9.60;99.90
54622;DHT22;40521;53.146;6.556;2023-03-31T08:20:04;9.60;99.90
54622;DHT22;40521;53.146;6.556;2023-03-31T08:22:45;8.10;99.90
54622;DHT22;40521;53.146;6.556;2023-03-31T08:25:25;10.00;99.90
54622;DHT22;40521;53.146;6.556;2023-03-31T08:27:59;9.70;99.90
54622;DHT22;40521;53.146;6.556;2023-03-31T08:30:44;9.60;99.90
54622;DHT22;40521;53.146;6.556;2023-03-31T08:36:25;9.70;99.90
54622;DHT22;40521;53.146;6.556;2023-03-31T08:39:11;9.60;99.90
54622;DHT22;40521;53.146;6.556;2023-03-31T08:45:00;9.40;99.90
54622;DHT22;40521;53.146;6.556;2023-03-31T08:56:13;10.60;99.90
54622;DHT22;40521;53.146;6.556;2023-03-31T08:58:43;10.00;99.90
54622;DHT22;40521;53.146;6.556;2023-03-31T09:09:31;10.00;99.90
54622;DHT22;40521;53.146;6.556;2023-03-31T09:15:11;10.10;99.90
54622;DHT22;40521;53.146;6.556;2023-03-31T09:17:58;10.10;99.90
54622;DHT22;40521;53.146;6.556;2023-03-31T09:20:30;10.10;99.90
54622;DHT22;40521;53.146;6.556;2023-03-31T09:23:00;10.10;99.90
54622;DHT22;40521;53.146;6.556;2023-03-31T09:25:38;10.10;99.90
54622;DHT22;40521;53.146;6.556;2023-03-31T09:28:29;9.90;99.90
54622;DHT22;40521;53.146;6.556;2023-03-31T09:31:14;10.20;99.90
54622;DHT22;40521;53.146;6.556;2023-03-31T09:33:49;10.20;99.90
54622;DHT22;40521;53.146;6.556;2023-03-31T09:36:35;10.20;99.90
54622;DHT22;40521;53.146;6.556;2023-03-31T09:39:24;9.40;99.90
54622;DHT22;40521;53.146;6.556;2023-03-31T09:41:55;10.40;99.90
54622;DHT22;40521;53.146;6.556;2023-03-31T09:44:52;8.90;99.90
54622;DHT22;40521;53.146;6.556;2023-03-31T09:49:58;10.60;99.90
54622;DHT22;40521;53.146;6.556;2023-03-31T09:57:55;10.80;99.90
54622;DHT22;40521;53.146;6.556;2023-03-31T10:00:23;10.70;99.90
54622;DHT22;40521;53.146;6.556;2023-03-31T10:02:52;11.00;99.90
54622;DHT22;40521;53.146;6.556;2023-03-31T10:05:34;11.10;99.90
54622;DHT22;40521;53.146;6.556;2023-03-31T10:08:40;11.50;99.90
54622;DHT22;40521;53.146;6.556;2023-03-31T10:11:29;9.70;99.90
54622;DHT22;40521;53.146;6.556;2023-03-31T10:14:02;11.40;99.90
54622;DHT22;40521;53.146;6.556;2023-03-31T10:18:54;11.30;99.90
54622;DHT22;40521;53.146;6.556;2023-03-31T10:21:37;11.20;99.90
54622;DHT22;40521;53.146;6.556;2023-03-31T10:24:11;11.10;99.90
54622;DHT22;40521;53.146;6.556;2023-03-31T10:26:46;11.30;99.90
54622;DHT22;40521;53.146;6.556;2023-03-31T10:29:25;11.20;99.90
54622;DHT22;40521;53.146;6.556;2023-03-31T10:32:03;11.10;99.90
54622;DHT22;40521;53.146;6.556;2023-03-31T10:34:52;11.50;99.90
54622;DHT22;40521;53.146;6.556;2023-03-31T10:37:33;12.30;99.90
54622;DHT22;40521;53.146;6.556;2023-03-31T10:40:17;11.40;99.90
54622;DHT22;40521;53.146;6.556;2023-03-31T10:42:49;11.30;99.90
54622;DHT22;40521;53.146;6.556;2023-03-31T10:45:42;11.30;99.90
54622;DHT22;40521;53.146;6.556;2023-03-31T10:48:29;13.20;99.90
54622;DHT22;40521;53.146;6.556;2023-03-31T10:51:03;11.60;99.90
54622;DHT22;40521;53.146;6.556;2023-03-31T10:53:44;10.10;99.90
54622;DHT22;40521;53.146;6.556;2023-03-31T10:59:31;11.90;99.90
54622;DHT22;40521;53.146;6.556;2023-03-31T11:08:05;13.90;99.90
54622;DHT22;40521;53.146;6.556;2023-03-31T11:10:55;13.20;99.90
54622;DHT22;40521;53.146;6.556;2023-03-31T11:19:22;13.10;99.90
54622;DHT22;40521;53.146;6.556;2023-03-31T11:30:27;13.10;99.90
54622;DHT22;40521;53.146;6.556;2023-03-31T11:36:01;13.50;99.90
54622;DHT22;40521;53.146;6.556;2023-03-31T11:43:55;14.00;99.90
54622;DHT22;40521;53.146;6.556;2023-03-31T11:46:26;13.80;99.90
54622;DHT22;40521;53.146;6.556;2023-03-31T11:54:06;13.60;99.90
54622;DHT22;40521;53.146;6.556;2023-03-31T11:56:48;13.20;99.90
54622;DHT22;40521;53.146;6.556;2023-03-31T11:59:30;13.70;99.90
54622;DHT22;40521;53.146;6.556;2023-03-31T12:04:37;13.00;99.90
54622;DHT22;40521;53.146;6.556;2023-03-31T12:09:52;11.00;99.90
54622;DHT22;40521;53.146;6.556;2023-03-31T12:15:36;12.90;99.90
54622;DHT22;40521;53.146;6.556;2023-03-31T12:18:22;12.00;99.90
54622;DHT22;40521;53.146;6.556;2023-03-31T12:21:22;13.00;99.90
54622;DHT22;40521;53.146;6.556;2023-03-31T12:26:49;12.70;99.90
54622;DHT22;40521;53.146;6.556;2023-03-31T12:35:00;11.80;99.90
54622;DHT22;40521;53.146;6.556;2023-03-31T12:37:37;13.10;99.90
54622;DHT22;40521;53.146;6.556;2023-03-31T12:57:11;13.40;99.90
54622;DHT22;40521;53.146;6.556;2023-03-31T13:05:57;13.80;99.90
54622;DHT22;40521;53.146;6.556;2023-03-31T13:11:49;13.90;99.90
54622;DHT22;40521;53.146;6.556;2023-03-31T13:22:41;13.70;99.90
54622;DHT22;40521;53.146;6.556;2023-03-31T13:33:59;13.50;99.90
54622;DHT22;40521;53.146;6.556;2023-03-31T13:44:55;13.20;99.90
54622;DHT22;40521;53.146;6.556;2023-03-31T13:58:52;12.70;99.90
54622;DHT22;40521;53.146;6.556;2023-03-31T14:06:49;12.00;99.90
54622;DHT22;40521;53.146;6.556;2023-03-31T14:09:33;13.40;99.90
54622;DHT22;40521;53.146;6.556;2023-03-31T14:12:17;11.90;99.90
54622;DHT22;40521;53.146;6.556;2023-03-31T14:18:01;12.90;99.90
54622;DHT22;40521;53.146;6.556;2023-03-31T14:20:44;12.70;99.90
54622;DHT22;40521;53.146;6.556;2023-03-31T14:23:39;13.00;99.90
54622;DHT22;40521;53.146;6.556;2023-03-31T14:26:20;13.20;99.90
54622;DHT22;40521;53.146;6.556;2023-03-31T14:37:31;13.40;99.90
54622;DHT22;40521;53.146;6.556;2023-03-31T14:40:10;15.00;99.90
54622;DHT22;40521;53.146;6.556;2023-03-31T14:42:40;13.70;99.90
54622;DHT22;40521;53.146;6.556;2023-03-31T14:45:29;13.70;99.90
54622;DHT22;40521;53.146;6.556;2023-03-31T14:48:21;13.70;99.90
54622;DHT22;40521;53.146;6.556;2023-03-31T14:50:49;13.20;99.90
54622;DHT22;40521;53.146;6.556;2023-03-31T14:53:48;13.90;99.90
54622;DHT22;40521;53.146;6.556;2023-03-31T14:56:41;12.50;99.90
54622;DHT22;40521;53.146;6.556;2023-03-31T14:59:15;14.10;99.90
54622;DHT22;40521;53.146;6.556;2023-03-31T15:01:53;14.10;99.90
54622;DHT22;40521;53.146;6.556;2023-03-31T15:04:26;13.90;99.90
54622;DHT22;40521;53.146;6.556;2023-03-31T15:07:10;13.80;99.90
54622;DHT22;40521;53.146;6.556;2023-03-31T15:09:41;13.80;99.90
54622;DHT22;40521;53.146;6.556;2023-03-31T15:12:27;13.40;99.90
54622;DHT22;40521;53.146;6.556;2023-03-31T15:15:11;13.20;99.90
54622;DHT22;40521;53.146;6.556;2023-03-31T15:17:48;13.50;99.90
54622;DHT22;40521;53.146;6.556;2023-03-31T15:22:58;12.40;99.90
54622;DHT22;40521;53.146;6.556;2023-03-31T15:25:45;13.40;99.90
54622;DHT22;40521;53.146;6.556;2023-03-31T15:28:23;12.30;99.90
54622;DHT22;40521;53.146;6.556;2023-03-31T15:30:53;13.00;99.90
54622;DHT22;40521;53.146;6.556;2023-03-31T15:33:25;12.30;99.90
54622;DHT22;40521;53.146;6.556;2023-03-31T15:36:15;13.50;99.90
54622;DHT22;40521;53.146;6.556;2023-03-31T15:38:41;13.90;99.90
54622;DHT22;40521;53.146;6.556;2023-03-31T15:41:20;13.20;99.90
54622;DHT22;40521;53.146;6.556;2023-03-31T15:49:17;13.60;99.90
54622;DHT22;40521;53.146;6.556;2023-03-31T15:51:50;13.30;99.90
54622;DHT22;40521;53.146;6.556;2023-03-31T15:54:54;12.10;99.90
54622;DHT22;40521;53.146;6.556;2023-03-31T15:57:33;13.10;99.90
54622;DHT22;40521;53.146;6.556;2023-03-31T16:00:39;12.70;99.90
54622;DHT22;40521;53.146;6.556;2023-03-31T16:03:03;12.00;99.90
54622;DHT22;40521;53.146;6.556;2023-03-31T16:05:40;11.10;99.90
54622;DHT22;40521;53.146;6.556;2023-03-31T16:08:16;13.40;99.90
54622;DHT22;40521;53.146;6.556;2023-03-31T16:10:44;11.60;99.90
54622;DHT22;40521;53.146;6.556;2023-03-31T16:13:20;13.20;99.90
54622;DHT22;40521;53.146;6.556;2023-03-31T16:15:50;11.50;99.90
54622;DHT22;40521;53.146;6.556;2023-03-31T16:18:29;12.90;99.90
54622;DHT22;40521;53.146;6.556;2023-03-31T16:21:11;12.90;99.90
54622;DHT22;40521;53.146;6.556;2023-03-31T16:23:48;12.40;99.90
54622;DHT22;40521;53.146;6.556;2023-03-31T16:26:20;11.40;99.90
54622;DHT22;40521;53.146;6.556;2023-03-31T16:28:58;12.10;99.90
54622;DHT22;40521;53.146;6.556;2023-03-31T16:32:01;12.90;99.90
54622;DHT22;40521;53.146;6.556;2023-03-31T16:34:59;12.80;99.90
54622;DHT22;40521;53.146;6.556;2023-03-31T16:37:25;12.70;99.90
54622;DHT22;40521;53.146;6.556;2023-03-31T16:39:56;12.70;99.90
54622;DHT22;40521;53.146;6.556;2023-03-31T16:42:24;12.60;99.90
54622;DHT22;40521;53.146;6.556;2023-03-31T16:45:06;12.90;99.90
54622;DHT22;40521;53.146;6.556;2023-03-31T16:47:42;12.50;99.90
54622;DHT22;40521;53.146;6.556;2023-03-31T16:50:15;12.60;99.90
54622;DHT22;40521;53.146;6.556;2023-03-31T16:52:44;12.40;99.90
54622;DHT22;40521;53.146;6.556;2023-03-31T16:55:12;12.40;99.90
54622;DHT22;40521;53.146;6.556;2023-03-31T16:57:46;11.30;99.90
54622;DHT22;40521;53.146;6.556;2023-03-31T17:00:40;11.00;99.90
54622;DHT22;40521;53.146;6.556;2023-03-31T17:10:16;11.40;99.90
54622;DHT22;40521;53.146;6.556;2023-03-31T17:16:10;12.10;99.90
54622;DHT22;40521;53.146;6.556;2023-03-31T17:19:04;10.60;99.90
54622;DHT22;40521;53.146;6.556;2023-03-31T17:22:00;12.40;99.90
54622;DHT22;40521;53.146;6.556;2023-03-31T17:27:25;10.60;99.90
54622;DHT22;40521;53.146;6.556;2023-03-31T17:30:02;11.10;99.90
54622;DHT22;40521;53.146;6.556;2023-03-31T17:32:33;11.50;99.90
54622;DHT22;40521;53.146;6.556;2023-03-31T17:35:11;11.70;99.90
54622;DHT22;40521;53.146;6.556;2023-03-31T17:37:55;10.00;99.90
54622;DHT22;40521;53.146;6.556;2023-03-31T17:40:43;11.80;99.90
54622;DHT22;40521;53.146;6.556;2023-03-31T17:43:29;11.40;99.90
54622;DHT22;40521;53.146;6.556;2023-03-31T17:46:18;9.80;99.90
54622;DHT22;40521;53.146;6.556;2023-03-31T17:48:46;9.80;99.90
54622;DHT22;40521;53.146;6.556;2023-03-31T17:51:22;11.70;99.90
54622;DHT22;40521;53.146;6.556;2023-03-31T17:53:50;11.40;99.90
54622;DHT22;40521;53.146;6.556;2023-03-31T17:56:45;11.50;99.90
54622;DHT22;40521;53.146;6.556;2023-03-31T17:59:26;11.40;99.90
54622;DHT22;40521;53.146;6.556;2023-03-31T18:01:55;13.60;99.90
54622;DHT22;40521;53.146;6.556;2023-03-31T18:04:28;11.40;99.90
54622;DHT22;40521;53.146;6.556;2023-03-31T18:06:56;11.70;99.90
54622;DHT22;40521;53.146;6.556;2023-03-31T18:09:28;10.20;99.90
54622;DHT22;40521;53.146;6.556;2023-03-31T18:11:56;11.70;99.90
54622;DHT22;40521;53.146;6.556;2023-03-31T18:14:27;11.30;99.90
54622;DHT22;40521;53.146;6.556;2023-03-31T18:16:58;11.30;99.90
54622;DHT22;40521;53.146;6.556;2023-03-31T18:19:26;11.30;99.90
54622;DHT22;40521;53.146;6.556;2023-03-31T18:22:15;11.10;99.90
54622;DHT22;40521;53.146;6.556;2023-03-31T18:25:00;9.40;99.90
54622;DHT22;40521;53.146;6.556;2023-03-31T18:27:27;11.10;99.90
54622;DHT22;40521;53.146;6.556;2023-03-31T18:30:22;11.30;99.90
54622;DHT22;40521;53.146;6.556;2023-03-31T18:32:57;11.30;99.90
54622;DHT22;40521;53.146;6.556;2023-03-31T18:35:34;11.00;99.90
54622;DHT22;40521;53.146;6.556;2023-03-31T18:38:05;10.30;99.90
54622;DHT22;40521;53.146;6.556;2023-03-31T18:40:31;11.20;99.90
54622;DHT22;40521;53.146;6.556;2023-03-31T18:42:57;9.90;99.90
54622;DHT22;40521;53.146;6.556;2023-03-31T18:45:41;10.20;99.90
54622;DHT22;40521;53.146;6.556;2023-03-31T18:48:46;11.20;99.90
54622;DHT22;40521;53.146;6.556;2023-03-31T18:57:47;12.70;99.90
54622;DHT22;40521;53.146;6.556;2023-03-31T19:03:31;9.90;99.90
54622;DHT22;40521;53.146;6.556;2023-03-31T19:06:17;11.10;99.90
54622;DHT22;40521;53.146;6.556;2023-03-31T19:08:54;9.60;99.90
54622;DHT22;40521;53.146;6.556;2023-03-31T19:11:37;10.90;99.90
54622;DHT22;40521;53.146;6.556;2023-03-31T19:14:32;11.60;99.90
54622;DHT22;40521;53.146;6.556;2023-03-31T19:17:18;11.50;99.90
54622;DHT22;40521;53.146;6.556;2023-03-31T19:22:47;11.00;99.90
54622;DHT22;40521;53.146;6.556;2023-03-31T19:44:56;11.20;99.90
54622;DHT22;40521;53.146;6.556;2023-03-31T19:51:27;10.10;99.90
54622;DHT22;40521;53.146;6.556;2023-03-31T19:54:04;10.70;99.90
54622;DHT22;40521;53.146;6.556;2023-03-31T20:04:08;12.80;99.90
54622;DHT22;40521;53.146;6.556;2023-03-31T20:07:04;12.10;99.90
54622;DHT22;40521;53.146;6.556;2023-03-31T20:16:34;9.90;99.90
54622;DHT22;40521;53.146;6.556;2023-03-31T20:22:22;10.60;99.90
54622;DHT22;40521;53.146;6.556;2023-03-31T20:25:12;9.50;99.90
54622;DHT22;40521;53.146;6.556;2023-03-31T20:30:50;12.20;99.90
54622;DHT22;40521;53.146;6.556;2023-03-31T20:37:04;10.80;99.90
54622;DHT22;40521;53.146;6.556;2023-03-31T20:49:07;9.80;99.90
54622;DHT22;40521;53.146;6.556;2023-03-31T20:51:35;10.40;99.90
54622;DHT22;40521;53.146;6.556;2023-03-31T20:54:42;10.20;99.90
54622;DHT22;40521;53.146;6.556;2023-03-31T20:57:40;10.90;99.90
54622;DHT22;40521;53.146;6.556;2023-03-31T21:00:26;10.50;99.90
54622;DHT22;40521;53.146;6.556;2023-03-31T21:02:57;10.10;99.90
54622;DHT22;40521;53.146;6.556;2023-03-31T21:05:26;10.70;99.90
54622;DHT22;40521;53.146;6.556;2023-03-31T21:08:11;10.20;99.90
54622;DHT22;40521;53.146;6.556;2023-03-31T21:10:53;10.00;99.90
54622;DHT22;40521;53.146;6.556;2023-03-31T21:13:29;10.00;99.90
54622;DHT22;40521;53.146;6.556;2023-03-31T21:16:00;10.00;99.90
54622;DHT22;40521;53.146;6.556;2023-03-31T21:18:46;10.20;99.90
54622;DHT22;40521;53.146;6.556;2023-03-31T21:21:33;10.20;99.90
54622;DHT22;40521;53.146;6.556;2023-03-31T21:24:00;10.00;99.90